スィクティフカル の空港の天気 - METARとTAF

Syktyvkar ( UUYY / SCW ) - ロシア スィクティフカル
飛行場実況気象(Metar)
観測時間10/15 20:00 MSK (10/15 17:00 UTC)
風向・風速北西 2m/s
視程10km以上
天気現象
全天の4割程度の雲 雲底高度 910m
気温2℃
湿度87%
気圧1013hPa
METARUUYY 151700Z 31002MPS 280V350 9999 SCT030CB 02/00 Q1013 R36/29//51 NOSIG RMK QFE751/1001
過去の天気等 Google飛行場航空写真 Wunderground天気予報

過去48時間のMETAR

飛行場予報(TAF)
発表時間: 10/15 20:00 MSK (10/15 17:00 UTC)
予報対象時間: 15日21時 MSK ~ 16日21時 MSK
風向・風速北西 3m/s 瞬間風速 8m/s
視程6000m
全天の8割程度の雲 雲底高度 340m
全天の8割程度の積乱雲 雲底高度 520m
15日21時 MSK ~ 15日24時 MSK に一時的に
視程3100m
天気現象弱いしゅう雨雪 もや
全天の8割程度の雲 雲底高度 150m
全天の8割程度の積乱雲 雲底高度 460m
16日0時 MSK ~ 16日21時 MSK に一時的に
視程3100m
天気現象弱いしゅう雨雪
少しの雲 雲底高度 210m
全天の8割程度の積乱雲 雲底高度 460m
TAF UUYY 151700Z 1518/1618 32003G08MPS 6000 BKN011 BKN017CB
TEMPO 1518/1521 3100 -SHRASN BR BKN005 BKN015CB
TEMPO 1521/1618 3100 -SHRASN FEW007 BKN015CB